sensor_id;sensor_type;location;lat;lon;timestamp;pressure;altitude;pressure_sealevel;temperature;humidity
55291;BME280;41155;39.768;2.712;2023-04-05T00:00:51;101543.59;;;13.32;55.85
55291;BME280;41155;39.768;2.712;2023-04-05T00:03:18;101522.22;;;13.19;56.10
55291;BME280;41155;39.768;2.712;2023-04-05T00:05:44;101522.31;;;13.24;56.36
55291;BME280;41155;39.768;2.712;2023-04-05T00:08:10;101546.91;;;13.34;56.58
55291;BME280;41155;39.768;2.712;2023-04-05T00:10:48;101546.00;;;13.28;56.40
55291;BME280;41155;39.768;2.712;2023-04-05T00:13:14;101526.25;;;13.16;56.24
55291;BME280;41155;39.768;2.712;2023-04-05T00:15:40;101530.34;;;13.19;56.08
55291;BME280;41155;39.768;2.712;2023-04-05T00:18:05;101515.59;;;13.09;56.00
55291;BME280;41155;39.768;2.712;2023-04-05T00:20:31;101506.88;;;13.07;56.10
55291;BME280;41155;39.768;2.712;2023-04-05T00:22:58;101515.91;;;13.13;55.96
55291;BME280;41155;39.768;2.712;2023-04-05T00:25:23;101542.09;;;13.24;56.04
55291;BME280;41155;39.768;2.712;2023-04-05T00:27:49;101504.34;;;13.01;56.04
55291;BME280;41155;39.768;2.712;2023-04-05T00:30:15;101518.56;;;13.08;55.77
55291;BME280;41155;39.768;2.712;2023-04-05T00:32:49;101542.91;;;13.25;55.64
55291;BME280;41155;39.768;2.712;2023-04-05T00:35:16;101532.50;;;13.17;55.75
55291;BME280;41155;39.768;2.712;2023-04-05T00:37:41;101493.59;;;12.89;55.64
55291;BME280;41155;39.768;2.712;2023-04-05T00:40:07;101537.34;;;13.15;55.46
55291;BME280;41155;39.768;2.712;2023-04-05T00:42:33;101528.81;;;13.06;55.56
55291;BME280;41155;39.768;2.712;2023-04-05T00:44:59;101504.94;;;12.86;55.51
55291;BME280;41155;39.768;2.712;2023-04-05T00:47:25;101512.34;;;12.91;55.82
55291;BME280;41155;39.768;2.712;2023-04-05T00:49:50;101526.84;;;13.01;55.93
55291;BME280;41155;39.768;2.712;2023-04-05T00:52:17;101526.03;;;13.01;56.31
55291;BME280;41155;39.768;2.712;2023-04-05T00:54:43;101499.09;;;12.77;56.13
55291;BME280;41155;39.768;2.712;2023-04-05T00:57:09;101526.53;;;12.98;55.68
55291;BME280;41155;39.768;2.712;2023-04-05T00:59:35;101523.50;;;12.94;55.89
55291;BME280;41155;39.768;2.712;2023-04-05T01:02:07;101497.47;;;12.76;56.20
55291;BME280;41155;39.768;2.712;2023-04-05T01:04:37;101519.88;;;12.88;55.73
55291;BME280;41155;39.768;2.712;2023-04-05T01:07:13;101499.38;;;12.76;55.55
55291;BME280;41155;39.768;2.712;2023-04-05T01:09:56;101523.97;;;12.91;55.59
55291;BME280;41155;39.768;2.712;2023-04-05T01:12:24;101485.41;;;12.67;55.40
55291;BME280;41155;39.768;2.712;2023-04-05T01:14:52;101519.78;;;12.83;55.25
55291;BME280;41155;39.768;2.712;2023-04-05T01:17:22;101515.69;;;12.81;55.29
55291;BME280;41155;39.768;2.712;2023-04-05T01:19:55;101501.16;;;12.70;55.21
55291;BME280;41155;39.768;2.712;2023-04-05T01:30:31;101515.03;;;12.74;54.99
55291;BME280;41155;39.768;2.712;2023-04-05T01:33:32;101515.53;;;12.71;54.89
55291;BME280;41155;39.768;2.712;2023-04-05T01:38:30;101495.97;;;12.52;54.46
55291;BME280;41155;39.768;2.712;2023-04-05T01:40:56;101513.94;;;12.58;54.40
55291;BME280;41155;39.768;2.712;2023-04-05T01:43:22;101503.50;;;12.50;54.46
55291;BME280;41155;39.768;2.712;2023-04-05T01:45:47;101507.38;;;12.54;54.52
55291;BME280;41155;39.768;2.712;2023-04-05T01:48:13;101508.47;;;12.53;54.52
55291;BME280;41155;39.768;2.712;2023-04-05T01:50:39;101499.75;;;12.51;54.63
55291;BME280;41155;39.768;2.712;2023-04-05T01:53:08;101497.28;;;12.49;54.65
55291;BME280;41155;39.768;2.712;2023-04-05T01:55:33;101503.44;;;12.44;54.73
55291;BME280;41155;39.768;2.712;2023-04-05T01:57:59;101478.44;;;12.26;54.64
55291;BME280;41155;39.768;2.712;2023-04-05T02:00:24;101488.31;;;12.32;54.63
55291;BME280;41155;39.768;2.712;2023-04-05T02:02:52;101471.06;;;12.21;54.39
55291;BME280;41155;39.768;2.712;2023-04-05T02:05:17;101464.97;;;12.14;54.31
55291;BME280;41155;39.768;2.712;2023-04-05T02:07:43;101499.94;;;12.32;54.43
55291;BME280;41155;39.768;2.712;2023-04-05T02:10:08;101459.47;;;12.09;54.32
55291;BME280;41155;39.768;2.712;2023-04-05T02:12:34;101488.22;;;12.27;54.40
55291;BME280;41155;39.768;2.712;2023-04-05T02:14:59;101456.09;;;12.02;54.67
55291;BME280;41155;39.768;2.712;2023-04-05T02:17:25;101490.09;;;12.26;54.77
55291;BME280;41155;39.768;2.712;2023-04-05T02:19:58;101491.16;;;12.25;54.68
55291;BME280;41155;39.768;2.712;2023-04-05T02:22:26;101493.88;;;12.25;54.92
55291;BME280;41155;39.768;2.712;2023-04-05T02:24:52;101450.69;;;12.02;55.09
55291;BME280;41155;39.768;2.712;2023-04-05T02:27:17;101483.53;;;12.22;55.11
55291;BME280;41155;39.768;2.712;2023-04-05T02:29:43;101474.66;;;12.10;54.80
55291;BME280;41155;39.768;2.712;2023-04-05T02:32:09;101484.03;;;12.19;54.99
55291;BME280;41155;39.768;2.712;2023-04-05T02:34:34;101445.06;;;11.91;54.92
55291;BME280;41155;39.768;2.712;2023-04-05T02:37:01;101477.38;;;12.10;54.84
55291;BME280;41155;39.768;2.712;2023-04-05T02:39:27;101468.72;;;11.96;54.95
55291;BME280;41155;39.768;2.712;2023-04-05T02:41:53;101478.22;;;11.98;54.84
55291;BME280;41155;39.768;2.712;2023-04-05T02:44:20;101464.00;;;11.91;55.12
55291;BME280;41155;39.768;2.712;2023-04-05T02:46:46;101491.50;;;12.00;54.97
55291;BME280;41155;39.768;2.712;2023-04-05T02:49:11;101464.63;;;11.82;55.01
55291;BME280;41155;39.768;2.712;2023-04-05T02:51:37;101463.69;;;11.76;55.52
55291;BME280;41155;39.768;2.712;2023-04-05T02:54:02;101484.25;;;11.89;55.27
55291;BME280;41155;39.768;2.712;2023-04-05T02:56:28;101485.09;;;11.89;55.45
55291;BME280;41155;39.768;2.712;2023-04-05T02:58:54;101497.88;;;11.94;55.52
55291;BME280;41155;39.768;2.712;2023-04-05T03:01:19;101494.97;;;11.84;55.62
55291;BME280;41155;39.768;2.712;2023-04-05T03:03:46;101499.19;;;11.91;55.71
55291;BME280;41155;39.768;2.712;2023-04-05T03:06:12;101477.13;;;11.71;55.88
55291;BME280;41155;39.768;2.712;2023-04-05T03:08:38;101473.41;;;11.60;55.99
55291;BME280;41155;39.768;2.712;2023-04-05T03:11:10;101505.69;;;11.79;56.13
55291;BME280;41155;39.768;2.712;2023-04-05T03:13:35;101496.97;;;11.76;56.18
55291;BME280;41155;39.768;2.712;2023-04-05T03:16:04;101482.44;;;11.66;56.30
55291;BME280;41155;39.768;2.712;2023-04-05T03:18:30;101492.38;;;11.77;56.31
55291;BME280;41155;39.768;2.712;2023-04-05T03:20:56;101501.34;;;11.77;56.62
55291;BME280;41155;39.768;2.712;2023-04-05T03:23:25;101491.56;;;11.76;56.60
55291;BME280;41155;39.768;2.712;2023-04-05T03:26:01;101483.25;;;11.66;56.59
55291;BME280;41155;39.768;2.712;2023-04-05T03:28:29;101473.38;;;11.72;56.60
55291;BME280;41155;39.768;2.712;2023-04-05T03:30:59;101488.84;;;11.76;56.57
55291;BME280;41155;39.768;2.712;2023-04-05T03:33:25;101498.88;;;11.76;56.71
55291;BME280;41155;39.768;2.712;2023-04-05T03:35:50;101491.56;;;11.76;56.45
55291;BME280;41155;39.768;2.712;2023-04-05T03:38:16;101472.91;;;11.63;56.28
55291;BME280;41155;39.768;2.712;2023-04-05T03:40:42;101485.97;;;11.66;56.23
55291;BME280;41155;39.768;2.712;2023-04-05T03:43:07;101494.63;;;11.68;56.20
55291;BME280;41155;39.768;2.712;2023-04-05T03:45:33;101484.09;;;11.55;56.53
55291;BME280;41155;39.768;2.712;2023-04-05T03:47:58;101437.25;;;11.26;56.62
55291;BME280;41155;39.768;2.712;2023-04-05T03:50:24;101496.66;;;11.61;56.58
55291;BME280;41155;39.768;2.712;2023-04-05T03:52:51;101463.53;;;11.42;56.74
55291;BME280;41155;39.768;2.712;2023-04-05T03:55:17;101495.03;;;11.60;57.04
55291;BME280;41155;39.768;2.712;2023-04-05T03:57:42;101486.22;;;11.53;56.91
55291;BME280;41155;39.768;2.712;2023-04-05T04:00:09;101495.59;;;11.62;57.20
55291;BME280;41155;39.768;2.712;2023-04-05T04:02:46;101488.22;;;11.58;57.23
55291;BME280;41155;39.768;2.712;2023-04-05T04:05:14;101506.19;;;11.64;56.81
55291;BME280;41155;39.768;2.712;2023-04-05T04:07:40;101485.88;;;11.49;57.10
55291;BME280;41155;39.768;2.712;2023-04-05T04:10:07;101502.91;;;11.62;56.97
55291;BME280;41155;39.768;2.712;2023-04-05T04:12:33;101471.56;;;11.37;56.89
55291;BME280;41155;39.768;2.712;2023-04-05T04:14:59;101483.06;;;11.44;57.05
55291;BME280;41155;39.768;2.712;2023-04-05T04:17:28;101503.25;;;11.53;57.27
55291;BME280;41155;39.768;2.712;2023-04-05T04:19:55;101481.91;;;11.40;57.20
55291;BME280;41155;39.768;2.712;2023-04-05T04:22:21;101504.94;;;11.54;57.18
55291;BME280;41155;39.768;2.712;2023-04-05T04:24:48;101491.16;;;11.44;57.04
55291;BME280;41155;39.768;2.712;2023-04-05T04:27:17;101502.69;;;11.51;57.40
55291;BME280;41155;39.768;2.712;2023-04-05T04:29:44;101505.41;;;11.51;57.21
55291;BME280;41155;39.768;2.712;2023-04-05T04:32:15;101492.00;;;11.45;57.42
55291;BME280;41155;39.768;2.712;2023-04-05T04:34:41;101490.09;;;11.45;57.52
55291;BME280;41155;39.768;2.712;2023-04-05T04:37:12;101490.94;;;11.46;57.68
55291;BME280;41155;39.768;2.712;2023-04-05T04:39:45;101486.59;;;11.45;57.67
55291;BME280;41155;39.768;2.712;2023-04-05T04:42:13;101489.53;;;11.43;57.80
55291;BME280;41155;39.768;2.712;2023-04-05T04:44:47;101465.69;;;11.28;57.73
55291;BME280;41155;39.768;2.712;2023-04-05T04:47:13;101473.34;;;11.31;57.57
55291;BME280;41155;39.768;2.712;2023-04-05T04:49:42;101469.78;;;11.31;57.65
55291;BME280;41155;39.768;2.712;2023-04-05T04:52:08;101494.13;;;11.43;57.88
55291;BME280;41155;39.768;2.712;2023-04-05T04:54:35;101484.00;;;11.38;57.66
55291;BME280;41155;39.768;2.712;2023-04-05T04:57:01;101493.53;;;11.41;57.81
55291;BME280;41155;39.768;2.712;2023-04-05T04:59:28;101493.75;;;11.39;57.97
55291;BME280;41155;39.768;2.712;2023-04-05T05:01:53;101488.84;;;11.36;58.16
55291;BME280;41155;39.768;2.712;2023-04-05T05:04:19;101490.97;;;11.34;58.20
55291;BME280;41155;39.768;2.712;2023-04-05T05:06:44;101483.91;;;11.33;58.52
55291;BME280;41155;39.768;2.712;2023-04-05T05:09:10;101486.84;;;11.31;58.59
55291;BME280;41155;39.768;2.712;2023-04-05T05:11:35;101481.00;;;11.23;59.08
55291;BME280;41155;39.768;2.712;2023-04-05T05:14:01;101469.47;;;11.16;58.79
55291;BME280;41155;39.768;2.712;2023-04-05T05:16:26;101491.41;;;11.31;58.90
55291;BME280;41155;39.768;2.712;2023-04-05T05:18:53;101437.19;;;10.97;58.60
55291;BME280;41155;39.768;2.712;2023-04-05T05:21:18;101501.19;;;11.32;58.74
55291;BME280;41155;39.768;2.712;2023-04-05T05:23:44;101480.41;;;11.21;58.67
55291;BME280;41155;39.768;2.712;2023-04-05T05:26:11;101505.78;;;11.31;58.78
55291;BME280;41155;39.768;2.712;2023-04-05T05:28:37;101488.25;;;11.22;58.91
55291;BME280;41155;39.768;2.712;2023-04-05T05:31:04;101505.53;;;11.33;58.89
55291;BME280;41155;39.768;2.712;2023-04-05T05:33:30;101491.44;;;11.19;58.62
55291;BME280;41155;39.768;2.712;2023-04-05T05:35:55;101520.13;;;11.32;58.35
55291;BME280;41155;39.768;2.712;2023-04-05T05:38:21;101521.16;;;11.31;58.57
55291;BME280;41155;39.768;2.712;2023-04-05T05:40:47;101511.06;;;11.26;58.93
55291;BME280;41155;39.768;2.712;2023-04-05T05:43:13;101494.38;;;11.18;58.59
55291;BME280;41155;39.768;2.712;2023-04-05T05:45:40;101520.00;;;11.27;58.98
55291;BME280;41155;39.768;2.712;2023-04-05T05:48:05;101512.25;;;11.19;59.28
55291;BME280;41155;39.768;2.712;2023-04-05T05:50:31;101536.22;;;11.27;59.17
55291;BME280;41155;39.768;2.712;2023-04-05T05:52:58;101538.69;;;11.28;59.19
55291;BME280;41155;39.768;2.712;2023-04-05T05:55:23;101544.44;;;11.32;59.07
55291;BME280;41155;39.768;2.712;2023-04-05T05:57:49;101540.47;;;11.23;59.00
55291;BME280;41155;39.768;2.712;2023-04-05T06:00:17;101533.28;;;11.17;59.31
55291;BME280;41155;39.768;2.712;2023-04-05T06:02:44;101537.38;;;11.19;59.01
55291;BME280;41155;39.768;2.712;2023-04-05T06:05:09;101536.81;;;11.17;59.10
55291;BME280;41155;39.768;2.712;2023-04-05T06:07:36;101540.47;;;11.23;59.45
55291;BME280;41155;39.768;2.712;2023-04-05T06:10:03;101537.63;;;11.18;59.45
55291;BME280;41155;39.768;2.712;2023-04-05T06:12:29;101556.56;;;11.29;59.73
55291;BME280;41155;39.768;2.712;2023-04-05T06:14:54;101532.91;;;11.13;60.03
55291;BME280;41155;39.768;2.712;2023-04-05T06:17:20;101509.78;;;11.05;59.84
55291;BME280;41155;39.768;2.712;2023-04-05T06:19:45;101563.97;;;11.34;59.74
55291;BME280;41155;39.768;2.712;2023-04-05T06:22:10;101562.66;;;11.37;59.84
55291;BME280;41155;39.768;2.712;2023-04-05T06:24:36;101542.31;;;11.22;59.68
55291;BME280;41155;39.768;2.712;2023-04-05T06:27:01;101510.00;;;11.04;60.13
55291;BME280;41155;39.768;2.712;2023-04-05T06:29:27;101557.72;;;11.34;60.29
55291;BME280;41155;39.768;2.712;2023-04-05T06:31:53;101573.38;;;11.43;60.23
55291;BME280;41155;39.768;2.712;2023-04-05T06:34:19;101579.25;;;11.40;60.43
55291;BME280;41155;39.768;2.712;2023-04-05T06:36:45;101575.47;;;11.29;60.61
55291;BME280;41155;39.768;2.712;2023-04-05T06:39:10;101587.59;;;11.39;60.90
55291;BME280;41155;39.768;2.712;2023-04-05T06:41:36;101563.72;;;11.24;60.98
55291;BME280;41155;39.768;2.712;2023-04-05T06:44:01;101593.81;;;11.39;61.32
55291;BME280;41155;39.768;2.712;2023-04-05T06:46:27;101587.72;;;11.32;61.65
55291;BME280;41155;39.768;2.712;2023-04-05T06:48:53;101604.06;;;11.37;61.89
55291;BME280;41155;39.768;2.712;2023-04-05T06:51:18;101586.91;;;11.31;62.09
55291;BME280;41155;39.768;2.712;2023-04-05T06:53:45;101584.53;;;11.35;62.30
55291;BME280;41155;39.768;2.712;2023-04-05T06:56:10;101593.34;;;11.42;62.28
55291;BME280;41155;39.768;2.712;2023-04-05T06:58:36;101569.81;;;11.31;62.35
55291;BME280;41155;39.768;2.712;2023-04-05T07:01:01;101604.28;;;11.59;62.63
55291;BME280;41155;39.768;2.712;2023-04-05T07:03:27;101600.06;;;11.63;62.64
55291;BME280;41155;39.768;2.712;2023-04-05T07:05:57;101573.03;;;11.51;62.67
55291;BME280;41155;39.768;2.712;2023-04-05T07:08:24;101595.19;;;11.77;62.66
55291;BME280;41155;39.768;2.712;2023-04-05T07:10:50;101599.44;;;11.85;62.88
55291;BME280;41155;39.768;2.712;2023-04-05T07:13:16;101582.84;;;11.81;62.78
55291;BME280;41155;39.768;2.712;2023-04-05T07:15:43;101599.78;;;12.00;62.55
55291;BME280;41155;39.768;2.712;2023-04-05T07:18:09;101596.69;;;12.08;62.72
55291;BME280;41155;39.768;2.712;2023-04-05T07:20:35;101597.97;;;12.17;62.64
55291;BME280;41155;39.768;2.712;2023-04-05T07:23:00;101601.97;;;12.27;62.13
55291;BME280;41155;39.768;2.712;2023-04-05T07:25:26;101580.75;;;12.24;61.97
55291;BME280;41155;39.768;2.712;2023-04-05T07:27:52;101586.16;;;12.35;62.21
55291;BME280;41155;39.768;2.712;2023-04-05T07:30:18;101602.19;;;12.54;61.98
55291;BME280;41155;39.768;2.712;2023-04-05T07:32:43;101598.78;;;12.58;61.77
55291;BME280;41155;39.768;2.712;2023-04-05T07:35:09;101611.66;;;12.68;61.75
55291;BME280;41155;39.768;2.712;2023-04-05T07:37:35;101619.97;;;12.78;61.66
55291;BME280;41155;39.768;2.712;2023-04-05T07:40:01;101610.88;;;12.84;61.50
55291;BME280;41155;39.768;2.712;2023-04-05T07:42:27;101611.88;;;12.95;61.41
55291;BME280;41155;39.768;2.712;2023-04-05T07:44:53;101615.81;;;13.04;61.42
55291;BME280;41155;39.768;2.712;2023-04-05T07:47:18;101613.50;;;13.13;61.22
55291;BME280;41155;39.768;2.712;2023-04-05T07:49:44;101594.97;;;13.05;61.55
55291;BME280;41155;39.768;2.712;2023-04-05T07:52:09;101622.75;;;13.29;61.25
55291;BME280;41155;39.768;2.712;2023-04-05T07:54:35;101588.16;;;13.19;60.97
55291;BME280;41155;39.768;2.712;2023-04-05T07:57:03;101620.59;;;13.48;60.90
55291;BME280;41155;39.768;2.712;2023-04-05T07:59:29;101625.94;;;13.60;60.84
55291;BME280;41155;39.768;2.712;2023-04-05T08:01:55;101619.03;;;13.69;60.58
55291;BME280;41155;39.768;2.712;2023-04-05T08:04:21;101590.66;;;13.60;60.54
55291;BME280;41155;39.768;2.712;2023-04-05T08:06:47;101613.81;;;13.84;60.59
55291;BME280;41155;39.768;2.712;2023-04-05T08:09:13;101627.06;;;14.02;60.66
55291;BME280;41155;39.768;2.712;2023-04-05T08:11:38;101626.41;;;14.12;60.31
55291;BME280;41155;39.768;2.712;2023-04-05T08:14:04;101631.63;;;14.19;59.67
55291;BME280;41155;39.768;2.712;2023-04-05T08:16:30;101617.81;;;14.20;59.76
55291;BME280;41155;39.768;2.712;2023-04-05T08:18:55;101632.94;;;14.38;59.39
55291;BME280;41155;39.768;2.712;2023-04-05T08:21:21;101634.13;;;14.47;59.01
55291;BME280;41155;39.768;2.712;2023-04-05T08:23:47;101623.00;;;14.49;58.62
55291;BME280;41155;39.768;2.712;2023-04-05T08:26:14;101611.88;;;14.51;57.83
55291;BME280;41155;39.768;2.712;2023-04-05T08:28:40;101593.94;;;14.50;57.42
55291;BME280;41155;39.768;2.712;2023-04-05T08:31:05;101639.00;;;14.95;56.87
55291;BME280;41155;39.768;2.712;2023-04-05T08:33:31;101609.03;;;14.89;56.31
55291;BME280;41155;39.768;2.712;2023-04-05T08:35:56;101637.84;;;15.18;56.21
55291;BME280;41155;39.768;2.712;2023-04-05T08:38:22;101619.41;;;15.30;55.46
55291;BME280;41155;39.768;2.712;2023-04-05T08:40:48;101645.44;;;15.53;54.93
55291;BME280;41155;39.768;2.712;2023-04-05T08:45:50;101642.34;;;15.71;53.91
55291;BME280;41155;39.768;2.712;2023-04-05T08:48:17;101620.25;;;15.68;53.62
55291;BME280;41155;39.768;2.712;2023-04-05T08:50:49;101586.44;;;15.64;53.28
55291;BME280;41155;39.768;2.712;2023-04-05T08:53:16;101588.75;;;15.82;53.08
55291;BME280;41155;39.768;2.712;2023-04-05T08:55:42;101634.63;;;16.11;52.38
55291;BME280;41155;39.768;2.712;2023-04-05T08:58:12;101636.91;;;16.29;51.57
55291;BME280;41155;39.768;2.712;2023-04-05T09:00:38;101608.53;;;16.25;51.70
55291;BME280;41155;39.768;2.712;2023-04-05T09:03:05;101623.88;;;16.52;51.34
55291;BME280;41155;39.768;2.712;2023-04-05T09:05:31;101633.44;;;16.59;50.98
55291;BME280;41155;39.768;2.712;2023-04-05T09:07:58;101610.53;;;16.55;50.77
55291;BME280;41155;39.768;2.712;2023-04-05T09:10:25;101622.88;;;16.78;50.34
55291;BME280;41155;39.768;2.712;2023-04-05T09:12:52;101630.28;;;16.93;50.01
55291;BME280;41155;39.768;2.712;2023-04-05T09:15:17;101622.34;;;16.91;49.92
55291;BME280;41155;39.768;2.712;2023-04-05T09:17:46;101600.25;;;17.03;49.07
55291;BME280;41155;39.768;2.712;2023-04-05T09:20:12;101628.38;;;17.24;48.99
55291;BME280;41155;39.768;2.712;2023-04-05T09:22:42;101594.53;;;17.10;48.66
55291;BME280;41155;39.768;2.712;2023-04-05T09:25:09;101590.72;;;17.16;48.42
55291;BME280;41155;39.768;2.712;2023-04-05T09:27:35;101623.41;;;17.47;48.23
55291;BME280;41155;39.768;2.712;2023-04-05T09:30:00;101622.88;;;17.50;48.03
55291;BME280;41155;39.768;2.712;2023-04-05T09:32:26;101575.13;;;17.32;47.39
55291;BME280;41155;39.768;2.712;2023-04-05T09:34:57;101608.66;;;17.58;47.38
55291;BME280;41155;39.768;2.712;2023-04-05T09:37:25;101607.78;;;17.73;47.37
55291;BME280;41155;39.768;2.712;2023-04-05T09:40:02;101579.69;;;17.67;46.65
55291;BME280;41155;39.768;2.712;2023-04-05T09:42:31;101611.28;;;17.99;46.04
55291;BME280;41155;39.768;2.712;2023-04-05T09:45:08;101608.28;;;18.05;45.62
55291;BME280;41155;39.768;2.712;2023-04-05T09:47:33;101617.75;;;18.28;45.38
55291;BME280;41155;39.768;2.712;2023-04-05T09:50:00;101621.81;;;18.31;44.89
55291;BME280;41155;39.768;2.712;2023-04-05T09:52:28;101588.72;;;18.38;44.32
55291;BME280;41155;39.768;2.712;2023-04-05T09:54:55;101612.03;;;18.69;43.62
55291;BME280;41155;39.768;2.712;2023-04-05T09:57:22;101610.84;;;18.86;43.35
55291;BME280;41155;39.768;2.712;2023-04-05T09:59:48;101584.78;;;18.93;43.31
55291;BME280;41155;39.768;2.712;2023-04-05T10:02:14;101585.75;;;19.08;43.05
55291;BME280;41155;39.768;2.712;2023-04-05T10:04:41;101592.97;;;19.28;42.82
55291;BME280;41155;39.768;2.712;2023-04-05T10:07:08;101592.34;;;19.36;42.63
55291;BME280;41155;39.768;2.712;2023-04-05T10:09:35;101580.13;;;19.52;41.23
55291;BME280;41155;39.768;2.712;2023-04-05T10:12:02;101590.47;;;19.84;41.14
55291;BME280;41155;39.768;2.712;2023-04-05T10:14:28;101588.66;;;19.99;40.64
55291;BME280;41155;39.768;2.712;2023-04-05T10:17:17;101592.03;;;20.15;40.69
55291;BME280;41155;39.768;2.712;2023-04-05T10:28:04;101589.81;;;20.17;39.96
55291;BME280;41155;39.768;2.712;2023-04-05T10:30:35;101590.91;;;20.16;39.90
55291;BME280;41155;39.768;2.712;2023-04-05T10:41:14;101594.66;;;20.01;40.57
55291;BME280;41155;39.768;2.712;2023-04-05T10:43:41;101603.00;;;20.15;39.91
55291;BME280;41155;39.768;2.712;2023-04-05T10:46:07;101569.50;;;20.18;39.73
55291;BME280;41155;39.768;2.712;2023-04-05T10:51:28;101604.97;;;20.71;39.19
55291;BME280;41155;39.768;2.712;2023-04-05T10:53:55;101592.34;;;20.70;39.03
55291;BME280;41155;39.768;2.712;2023-04-05T10:56:21;101610.13;;;20.91;39.12
55291;BME280;41155;39.768;2.712;2023-04-05T10:58:48;101585.94;;;20.93;38.34
55291;BME280;41155;39.768;2.712;2023-04-05T11:01:16;101608.34;;;21.01;38.48
55291;BME280;41155;39.768;2.712;2023-04-05T11:03:49;101601.81;;;20.96;38.87
55291;BME280;41155;39.768;2.712;2023-04-05T11:08:50;101617.56;;;21.24;38.49
55291;BME280;41155;39.768;2.712;2023-04-05T11:11:17;101580.50;;;21.07;38.17
55291;BME280;41155;39.768;2.712;2023-04-05T11:13:50;101624.91;;;21.28;38.26
55291;BME280;41155;39.768;2.712;2023-04-05T11:16:16;101615.66;;;21.05;38.73
55291;BME280;41155;39.768;2.712;2023-04-05T11:18:49;101634.19;;;21.32;38.56
55291;BME280;41155;39.768;2.712;2023-04-05T11:21:23;101620.47;;;21.46;37.80
55291;BME280;41155;39.768;2.712;2023-04-05T11:24:01;101632.88;;;21.43;37.96
55291;BME280;41155;39.768;2.712;2023-04-05T11:26:52;101604.31;;;21.12;38.48
55291;BME280;41155;39.768;2.712;2023-04-05T11:29:18;101633.13;;;21.28;38.57
55291;BME280;41155;39.768;2.712;2023-04-05T11:32:11;101627.97;;;21.27;38.88
55291;BME280;41155;39.768;2.712;2023-04-05T11:34:36;101629.19;;;21.34;38.87
55291;BME280;41155;39.768;2.712;2023-04-05T11:37:02;101629.06;;;21.58;38.58
55291;BME280;41155;39.768;2.712;2023-04-05T11:39:28;101625.91;;;21.93;37.83
55291;BME280;41155;39.768;2.712;2023-04-05T11:42:01;101608.00;;;21.95;37.86
55291;BME280;41155;39.768;2.712;2023-04-05T11:44:29;101577.34;;;22.02;36.83
55291;BME280;41155;39.768;2.712;2023-04-05T11:46:56;101606.47;;;22.17;36.82
55291;BME280;41155;39.768;2.712;2023-04-05T11:49:23;101613.22;;;22.61;36.39
55291;BME280;41155;39.768;2.712;2023-04-05T11:51:51;101615.19;;;22.83;36.38
55291;BME280;41155;39.768;2.712;2023-04-05T11:54:32;101574.41;;;22.71;35.99
55291;BME280;41155;39.768;2.712;2023-04-05T11:56:58;101565.22;;;22.53;36.32
55291;BME280;41155;39.768;2.712;2023-04-05T11:59:33;101604.94;;;22.61;36.87
55291;BME280;41155;39.768;2.712;2023-04-05T12:02:04;101577.34;;;22.52;36.69
55291;BME280;41155;39.768;2.712;2023-04-05T12:04:31;101576.44;;;22.56;36.51
55291;BME280;41155;39.768;2.712;2023-04-05T12:07:14;101590.84;;;22.62;36.92
55291;BME280;41155;39.768;2.712;2023-04-05T12:12:32;101599.88;;;22.76;36.65
55291;BME280;41155;39.768;2.712;2023-04-05T12:14:59;101597.75;;;22.73;36.79
55291;BME280;41155;39.768;2.712;2023-04-05T12:22:32;101576.69;;;22.32;37.31
55291;BME280;41155;39.768;2.712;2023-04-05T12:24:58;101564.94;;;22.04;38.22
55291;BME280;41155;39.768;2.712;2023-04-05T12:27:24;101587.94;;;22.22;37.86
55291;BME280;41155;39.768;2.712;2023-04-05T12:32:50;101557.78;;;22.17;37.62
55291;BME280;41155;39.768;2.712;2023-04-05T12:35:42;101590.97;;;22.34;37.58
55291;BME280;41155;39.768;2.712;2023-04-05T12:38:08;101565.94;;;22.22;37.04
55291;BME280;41155;39.768;2.712;2023-04-05T12:40:36;101581.16;;;22.42;37.09
55291;BME280;41155;39.768;2.712;2023-04-05T12:45:28;101542.09;;;22.04;37.23
55291;BME280;41155;39.768;2.712;2023-04-05T12:47:57;101572.75;;;22.25;37.27
55291;BME280;41155;39.768;2.712;2023-04-05T12:50:27;101567.25;;;22.11;37.26
55291;BME280;41155;39.768;2.712;2023-04-05T12:53:04;101564.69;;;22.01;37.31
55291;BME280;41155;39.768;2.712;2023-04-05T12:55:29;101553.53;;;21.83;37.41
55291;BME280;41155;39.768;2.712;2023-04-05T12:57:59;101559.44;;;21.91;37.64
55291;BME280;41155;39.768;2.712;2023-04-05T13:00:27;101562.19;;;22.04;36.91
55291;BME280;41155;39.768;2.712;2023-04-05T13:02:54;101524.19;;;21.93;37.22
55291;BME280;41155;39.768;2.712;2023-04-05T13:05:28;101524.34;;;22.10;36.68
55291;BME280;41155;39.768;2.712;2023-04-05T13:07:53;101535.53;;;22.27;36.43
55291;BME280;41155;39.768;2.712;2023-04-05T13:10:20;101491.84;;;22.12;36.28
55291;BME280;41155;39.768;2.712;2023-04-05T13:12:46;101535.59;;;22.36;36.01
55291;BME280;41155;39.768;2.712;2023-04-05T13:15:13;101535.69;;;22.45;35.71
55291;BME280;41155;39.768;2.712;2023-04-05T13:17:43;101534.56;;;22.46;35.92
55291;BME280;41155;39.768;2.712;2023-04-05T13:20:10;101510.84;;;22.36;35.99
55291;BME280;41155;39.768;2.712;2023-04-05T13:22:36;101525.69;;;22.49;35.64
55291;BME280;41155;39.768;2.712;2023-04-05T13:25:02;101514.34;;;22.50;35.55
55291;BME280;41155;39.768;2.712;2023-04-05T13:27:30;101500.31;;;22.52;35.43
55291;BME280;41155;39.768;2.712;2023-04-05T13:29:56;101514.00;;;22.43;35.47
55291;BME280;41155;39.768;2.712;2023-04-05T13:32:21;101497.41;;;22.34;35.84
55291;BME280;41155;39.768;2.712;2023-04-05T13:34:47;101520.81;;;22.68;35.65
55291;BME280;41155;39.768;2.712;2023-04-05T13:37:13;101502.31;;;22.60;35.64
55291;BME280;41155;39.768;2.712;2023-04-05T13:39:39;101497.66;;;22.47;35.48